createdAt,value
2023-03-19T00:00:36.963Z,9.70
2023-03-19T00:03:03.802Z,9.48
2023-03-19T00:05:30.602Z,11.13
2023-03-19T00:07:57.383Z,10.02
2023-03-19T00:10:24.101Z,10.02
2023-03-19T00:12:50.777Z,10.05
2023-03-19T00:15:17.502Z,10.82
2023-03-19T00:17:44.273Z,13.27
2023-03-19T00:20:12.778Z,12.25
2023-03-19T00:22:40.381Z,11.25
2023-03-19T00:25:08.683Z,10.07
2023-03-19T00:27:37.637Z,10.13
2023-03-19T00:30:06.994Z,10.55
2023-03-19T00:32:34.295Z,9.55
2023-03-19T00:35:01.520Z,8.45
2023-03-19T00:37:28.648Z,8.65
2023-03-19T00:39:56.350Z,8.57
2023-03-19T00:42:23.051Z,8.70
2023-03-19T00:44:49.708Z,6.75
2023-03-19T00:47:16.622Z,8.07
2023-03-19T00:49:43.315Z,8.75
2023-03-19T00:52:10.070Z,8.00
2023-03-19T00:54:36.794Z,8.82
2023-03-19T00:57:03.657Z,8.38
2023-03-19T00:59:30.589Z,8.68
2023-03-19T01:01:57.316Z,8.20
2023-03-19T01:04:24.128Z,7.65
2023-03-19T01:06:51.133Z,7.68
2023-03-19T01:09:17.992Z,6.68
2023-03-19T01:11:44.854Z,7.35
2023-03-19T01:14:11.821Z,7.65
2023-03-19T01:16:38.595Z,8.32
2023-03-19T01:19:06.148Z,6.35
2023-03-19T01:21:33.473Z,7.47
2023-03-19T01:24:00.594Z,5.20
2023-03-19T01:26:27.453Z,6.00
2023-03-19T01:28:54.335Z,5.50
2023-03-19T01:31:22.147Z,5.40
2023-03-19T01:33:48.903Z,6.40
2023-03-19T01:36:15.608Z,3.03
2023-03-19T01:38:42.776Z,3.80
2023-03-19T01:41:09.778Z,4.60
2023-03-19T01:43:36.762Z,3.22
2023-03-19T01:46:06.906Z,2.67
2023-03-19T01:48:50.379Z,2.45
2023-03-19T01:53:53.180Z,2.40
2023-03-19T01:56:22.813Z,2.88
2023-03-19T01:58:53.528Z,3.13
2023-03-19T02:01:20.722Z,2.03
2023-03-19T02:03:48.863Z,2.50
2023-03-19T02:06:16.828Z,3.65
2023-03-19T02:08:43.873Z,2.10
2023-03-19T02:11:10.875Z,1.48
2023-03-19T02:13:38.097Z,1.80
2023-03-19T02:16:05.363Z,1.88
2023-03-19T02:18:32.433Z,2.63
2023-03-19T02:21:07.019Z,3.10
2023-03-19T02:23:36.361Z,1.83
2023-03-19T02:26:07.052Z,1.92
2023-03-19T02:28:36.725Z,2.25
2023-03-19T02:31:03.610Z,2.58
2023-03-19T02:33:30.630Z,2.45
2023-03-19T02:35:58.755Z,2.63
2023-03-19T02:38:27.382Z,3.05
2023-03-19T02:41:00.904Z,2.70
2023-03-19T02:43:28.054Z,3.17
2023-03-19T02:45:55.494Z,4.90
2023-03-19T02:48:22.404Z,1.73
2023-03-19T02:50:49.103Z,2.42
2023-03-19T02:53:16.066Z,2.00
2023-03-19T02:55:43.407Z,2.30
2023-03-19T02:58:10.208Z,3.35
2023-03-19T03:00:37.983Z,2.80
2023-03-19T03:03:06.834Z,2.58
2023-03-19T03:05:34.285Z,1.95
2023-03-19T03:08:01.020Z,1.67
2023-03-19T03:10:28.050Z,1.55
2023-03-19T03:12:55.295Z,1.95
2023-03-19T03:15:22.053Z,1.65
2023-03-19T03:17:48.778Z,1.52
2023-03-19T03:20:17.799Z,1.40
2023-03-19T03:22:44.677Z,2.42
2023-03-19T03:25:11.582Z,1.98
2023-03-19T03:27:38.691Z,1.50
2023-03-19T03:30:08.207Z,1.92
2023-03-19T03:32:36.836Z,0.90
2023-03-19T03:35:05.367Z,2.55
2023-03-19T03:37:32.071Z,2.03
2023-03-19T03:39:58.748Z,2.28
2023-03-19T03:42:25.573Z,1.50
2023-03-19T03:44:52.325Z,1.70
2023-03-19T03:47:19.026Z,1.38
2023-03-19T03:49:45.726Z,1.27
2023-03-19T03:52:12.562Z,1.50
2023-03-19T03:54:39.218Z,2.45
2023-03-19T03:57:06.167Z,1.85
2023-03-19T03:59:32.842Z,2.40
2023-03-19T04:01:59.545Z,1.20
2023-03-19T04:04:26.657Z,1.63
2023-03-19T04:06:53.355Z,1.60
2023-03-19T04:09:20.058Z,2.17
2023-03-19T04:11:46.775Z,2.00
2023-03-19T04:14:13.514Z,2.17
2023-03-19T04:16:40.307Z,1.85
2023-03-19T04:19:08.011Z,1.85
2023-03-19T04:21:34.846Z,3.17
2023-03-19T04:24:02.307Z,1.55
2023-03-19T04:26:29.114Z,2.55
2023-03-19T04:28:55.905Z,0.93
2023-03-19T04:31:22.647Z,1.17
2023-03-19T04:33:49.764Z,2.08
2023-03-19T04:36:18.017Z,1.00
2023-03-19T04:38:44.693Z,1.10
2023-03-19T04:41:11.380Z,2.28
2023-03-19T04:43:38.079Z,1.15
2023-03-19T04:46:05.107Z,1.00
2023-03-19T04:48:32.343Z,1.52
2023-03-19T04:50:59.014Z,1.63
2023-03-19T04:53:25.735Z,1.52
2023-03-19T04:55:52.424Z,1.02
2023-03-19T04:58:19.204Z,1.33
2023-03-19T05:00:47.595Z,1.20
2023-03-19T05:03:17.658Z,1.58
2023-03-19T05:05:44.924Z,1.85
2023-03-19T05:08:11.721Z,1.20
2023-03-19T05:10:38.605Z,1.20
2023-03-19T05:13:05.607Z,1.77
2023-03-19T05:15:32.457Z,2.95
2023-03-19T05:17:59.233Z,3.08
2023-03-19T05:20:25.917Z,1.55
2023-03-19T05:22:53.749Z,1.95
2023-03-19T05:25:20.732Z,1.55
2023-03-19T05:27:47.499Z,2.03
2023-03-19T05:30:14.881Z,3.28
2023-03-19T05:32:41.733Z,4.15
2023-03-19T05:35:08.884Z,1.50
2023-03-19T05:37:35.702Z,3.08
2023-03-19T05:40:02.399Z,1.90
2023-03-19T05:42:29.144Z,6.57
2023-03-19T05:44:55.846Z,2.97
2023-03-19T05:47:22.637Z,5.45
2023-03-19T05:49:50.437Z,3.45
2023-03-19T05:52:17.247Z,4.85
2023-03-19T05:54:43.969Z,3.28
2023-03-19T05:57:10.797Z,3.67
2023-03-19T05:59:37.485Z,4.88
2023-03-19T06:02:04.165Z,7.40
2023-03-19T06:04:31.291Z,6.38
2023-03-19T06:06:57.932Z,6.68
2023-03-19T06:09:25.033Z,6.20
2023-03-19T06:11:51.726Z,4.10
2023-03-19T06:14:18.399Z,3.42
2023-03-19T06:16:45.256Z,4.35
2023-03-19T06:19:12.060Z,9.35
2023-03-19T06:21:38.759Z,2.85
2023-03-19T06:24:05.620Z,6.28
2023-03-19T06:26:32.312Z,6.68
2023-03-19T06:28:59.030Z,4.65
2023-03-19T06:31:26.162Z,3.58
2023-03-19T06:33:53.137Z,4.80
2023-03-19T06:36:19.865Z,2.75
2023-03-19T06:38:46.814Z,5.07
2023-03-19T06:41:13.593Z,3.45
2023-03-19T06:43:42.152Z,2.67
2023-03-19T06:46:11.566Z,3.92
2023-03-19T06:48:38.724Z,3.17
2023-03-19T06:51:06.360Z,4.53
2023-03-19T06:53:33.317Z,5.40
2023-03-19T06:56:00.046Z,3.08
2023-03-19T06:58:27.208Z,2.47
2023-03-19T07:00:53.948Z,6.28
2023-03-19T07:03:20.861Z,4.03
2023-03-19T07:05:51.518Z,2.97
2023-03-19T07:08:18.517Z,8.35
2023-03-19T07:10:45.375Z,3.85
2023-03-19T07:13:12.128Z,3.72
2023-03-19T07:15:38.980Z,3.17
2023-03-19T07:18:05.877Z,7.00
2023-03-19T07:20:33.144Z,6.00
2023-03-19T07:23:00.012Z,4.82
2023-03-19T07:25:26.763Z,5.05
2023-03-19T07:27:55.931Z,7.78
2023-03-19T07:30:23.483Z,3.42
2023-03-19T07:32:50.641Z,4.75
2023-03-19T07:35:17.410Z,5.40
2023-03-19T07:37:44.080Z,3.97
2023-03-19T07:40:11.729Z,6.45
2023-03-19T07:42:38.697Z,5.82
2023-03-19T07:45:06.817Z,5.72
2023-03-19T07:47:33.530Z,6.45
2023-03-19T07:50:00.798Z,7.07
2023-03-19T07:52:27.647Z,5.93
2023-03-19T07:54:54.424Z,8.02
2023-03-19T07:57:21.211Z,3.80
2023-03-19T07:59:47.898Z,7.28
2023-03-19T08:02:14.898Z,5.63
2023-03-19T08:04:42.199Z,4.15
2023-03-19T08:07:12.694Z,4.18
2023-03-19T08:09:40.979Z,6.28
2023-03-19T08:12:09.152Z,4.90
2023-03-19T08:14:36.210Z,5.95
2023-03-19T08:17:06.060Z,4.90
2023-03-19T08:19:33.003Z,3.25
2023-03-19T08:21:59.749Z,5.70
2023-03-19T08:24:26.564Z,3.17
2023-03-19T08:26:53.660Z,3.83
2023-03-19T08:29:21.005Z,6.53
2023-03-19T08:31:47.736Z,2.50
2023-03-19T08:34:14.842Z,3.40
2023-03-19T08:36:41.501Z,3.15
2023-03-19T08:39:08.749Z,4.00
2023-03-19T08:41:36.971Z,2.88
2023-03-19T08:44:04.398Z,2.85
2023-03-19T08:46:31.580Z,4.18
2023-03-19T08:49:00.966Z,2.58
2023-03-19T08:51:31.197Z,9.20
2023-03-19T08:53:58.060Z,4.75
2023-03-19T08:56:24.742Z,5.13
2023-03-19T08:58:51.518Z,3.42
2023-03-19T09:01:18.205Z,3.90
2023-03-19T09:03:45.475Z,4.28
2023-03-19T09:06:14.443Z,2.63
2023-03-19T09:08:42.233Z,3.40
2023-03-19T09:11:09.089Z,4.47
2023-03-19T09:13:36.105Z,1.70
2023-03-19T09:16:03.152Z,2.03
2023-03-19T09:18:29.849Z,4.65
2023-03-19T09:20:56.598Z,1.67
2023-03-19T09:23:23.537Z,2.45
2023-03-19T09:25:51.225Z,2.80
2023-03-19T09:28:18.353Z,3.05
2023-03-19T09:30:49.599Z,4.72
2023-03-19T09:33:17.718Z,1.55
2023-03-19T09:35:49.789Z,3.55
2023-03-19T09:38:16.635Z,4.40
2023-03-19T09:40:49.072Z,4.47
2023-03-19T09:43:24.848Z,3.53
2023-03-19T09:45:52.179Z,4.38
2023-03-19T09:48:57.634Z,5.10
2023-03-19T09:51:46.720Z,2.30
2023-03-19T09:54:28.558Z,3.53
2023-03-19T09:56:55.925Z,6.13
2023-03-19T09:59:25.204Z,2.67
2023-03-19T10:02:07.010Z,3.33
2023-03-19T10:04:42.626Z,7.10
2023-03-19T10:07:24.331Z,3.35
2023-03-19T10:10:27.097Z,3.38
2023-03-19T10:13:15.531Z,2.35
2023-03-19T10:15:44.972Z,2.55
2023-03-19T10:18:18.468Z,3.30
2023-03-19T10:21:06.927Z,3.42
2023-03-19T10:23:53.202Z,4.38
2023-03-19T10:26:22.372Z,3.90
2023-03-19T10:29:14.825Z,4.50
2023-03-19T10:31:52.095Z,5.13
2023-03-19T10:34:29.461Z,5.05
2023-03-19T10:37:22.735Z,5.53
2023-03-19T10:39:51.656Z,3.35
2023-03-19T10:42:40.945Z,4.10
2023-03-19T10:45:31.482Z,3.42
2023-03-19T10:47:59.780Z,2.65
2023-03-19T10:50:38.922Z,2.92
2023-03-19T10:53:14.688Z,3.83
2023-03-19T10:55:53.532Z,3.78
2023-03-19T10:58:23.903Z,3.63
2023-03-19T11:01:06.855Z,8.88
2023-03-19T11:03:34.974Z,3.47
2023-03-19T11:06:07.972Z,4.68
2023-03-19T11:08:37.197Z,3.25
2023-03-19T11:11:04.120Z,4.68
2023-03-19T11:13:34.266Z,5.10
2023-03-19T11:16:01.318Z,4.47
2023-03-19T11:18:37.249Z,3.58
2023-03-19T11:21:21.464Z,3.55
2023-03-19T11:23:53.538Z,3.70
2023-03-19T11:26:21.716Z,5.45
2023-03-19T11:28:52.132Z,3.78
2023-03-19T11:31:27.389Z,3.55
2023-03-19T11:34:03.152Z,6.68
2023-03-19T11:36:54.121Z,3.33
2023-03-19T11:39:59.305Z,6.00
2023-03-19T11:42:41.068Z,4.13
2023-03-19T11:45:13.704Z,7.00
2023-03-19T11:47:49.518Z,6.55
2023-03-19T11:50:22.372Z,2.55
2023-03-19T11:53:07.258Z,4.15
2023-03-19T11:55:44.336Z,6.57
2023-03-19T11:58:35.986Z,8.75
2023-03-19T12:01:45.833Z,4.00
2023-03-19T12:04:30.930Z,4.40
2023-03-19T12:07:24.834Z,8.57
2023-03-19T12:10:12.792Z,3.55
2023-03-19T12:13:08.883Z,4.72
2023-03-19T12:16:02.500Z,2.70
2023-03-19T12:22:28.063Z,3.13
2023-03-19T12:25:03.602Z,3.15
2023-03-19T12:27:41.882Z,5.07
2023-03-19T12:30:27.510Z,2.47
2023-03-19T12:32:58.213Z,4.40
2023-03-19T12:35:31.876Z,4.68
2023-03-19T12:38:17.286Z,3.70
2023-03-19T12:40:50.461Z,6.40
2023-03-19T12:46:01.235Z,3.20
2023-03-19T12:48:51.277Z,5.47
2023-03-19T12:51:22.856Z,3.28
2023-03-19T12:53:59.324Z,5.50
2023-03-19T12:57:00.302Z,5.07
2023-03-19T12:59:41.129Z,8.73
2023-03-19T13:02:29.652Z,4.07
2023-03-19T13:05:07.459Z,4.07
2023-03-19T13:07:49.144Z,5.78
2023-03-19T13:10:21.349Z,4.90
2023-03-19T13:12:50.353Z,6.00
2023-03-19T13:15:20.819Z,4.20
2023-03-19T13:18:06.237Z,2.80
2023-03-19T13:21:00.697Z,8.80
2023-03-19T13:23:32.536Z,7.47
2023-03-19T13:26:04.468Z,4.30
2023-03-19T13:28:35.293Z,4.75
2023-03-19T13:31:06.806Z,4.32
2023-03-19T13:33:35.576Z,4.93
2023-03-19T13:36:05.811Z,11.40
2023-03-19T13:38:40.623Z,7.30
2023-03-19T13:41:33.012Z,9.55
2023-03-19T13:44:01.761Z,7.53
2023-03-19T13:46:41.232Z,9.05
2023-03-19T13:49:14.257Z,6.57
2023-03-19T13:51:40.916Z,6.45
2023-03-19T13:54:18.003Z,7.32
2023-03-19T13:57:15.364Z,4.20
2023-03-19T13:59:45.304Z,4.88
2023-03-19T14:02:21.356Z,4.80
2023-03-19T14:05:07.220Z,3.92
2023-03-19T14:07:41.664Z,4.25
2023-03-19T14:10:25.405Z,4.68
2023-03-19T14:13:02.819Z,6.78
2023-03-19T14:15:30.963Z,8.68
2023-03-19T14:18:07.485Z,7.80
2023-03-19T14:20:48.101Z,6.35
2023-03-19T14:23:42.668Z,6.78
2023-03-19T14:26:23.333Z,12.05
2023-03-19T14:29:04.409Z,7.68
2023-03-19T14:31:42.874Z,6.75
2023-03-19T14:34:22.124Z,3.75
2023-03-19T14:37:03.333Z,7.35
2023-03-19T14:39:40.809Z,4.50
2023-03-19T14:42:25.602Z,4.00
2023-03-19T14:45:21.846Z,3.95
2023-03-19T14:48:09.737Z,1.67
2023-03-19T14:50:42.387Z,10.23
2023-03-19T14:53:19.367Z,7.32
2023-03-19T14:55:51.336Z,5.05
2023-03-19T14:58:21.043Z,6.07
2023-03-19T15:00:51.765Z,7.47
2023-03-19T15:03:30.580Z,7.38
2023-03-19T15:06:02.576Z,15.90
2023-03-19T15:08:32.420Z,11.50
2023-03-19T15:11:15.331Z,6.68
2023-03-19T15:14:06.600Z,6.47
2023-03-19T15:16:51.876Z,7.10
2023-03-19T15:19:29.149Z,9.93
2023-03-19T15:22:19.713Z,8.27
2023-03-19T15:24:48.029Z,12.20
2023-03-19T15:27:22.006Z,7.78
2023-03-19T15:29:51.549Z,6.88
2023-03-19T15:32:52.170Z,9.57
2023-03-19T15:35:24.911Z,6.40
2023-03-19T15:37:56.850Z,8.20
2023-03-19T15:40:29.004Z,7.82
2023-03-19T15:42:59.444Z,6.05
2023-03-19T15:45:28.558Z,3.00
2023-03-19T15:48:02.182Z,3.78
2023-03-19T15:50:34.003Z,5.65
2023-03-19T15:53:09.138Z,4.80
2023-03-19T15:55:37.140Z,5.90
2023-03-19T15:58:16.000Z,5.68
2023-03-19T16:00:43.826Z,5.47
2023-03-19T16:03:19.954Z,9.50
2023-03-19T16:05:52.714Z,5.13
2023-03-19T16:08:25.945Z,7.03
2023-03-19T16:13:27.843Z,5.60
2023-03-19T16:15:57.183Z,4.50
2023-03-19T16:18:25.544Z,5.53
2023-03-19T16:21:02.917Z,4.80
2023-03-19T16:23:36.149Z,5.60
2023-03-19T16:29:05.796Z,5.60
2023-03-19T16:31:41.395Z,7.85
2023-03-19T16:34:24.703Z,5.78
2023-03-19T16:36:51.646Z,6.80
2023-03-19T16:39:30.643Z,5.03
2023-03-19T16:42:09.390Z,6.28
2023-03-19T16:44:40.965Z,7.20
2023-03-19T16:47:12.102Z,5.88
2023-03-19T16:49:38.920Z,6.60
2023-03-19T16:52:10.513Z,5.85
2023-03-19T16:54:37.474Z,4.60
2023-03-19T16:57:04.305Z,5.75
2023-03-19T16:59:31.469Z,5.93
2023-03-19T17:01:59.034Z,4.80
2023-03-19T17:04:26.557Z,5.45
2023-03-19T17:06:53.326Z,4.78
2023-03-19T17:09:20.843Z,5.72
2023-03-19T17:11:47.716Z,9.25
2023-03-19T17:14:21.161Z,6.53
2023-03-19T17:16:50.866Z,5.53
2023-03-19T17:19:23.463Z,5.22
2023-03-19T17:21:53.610Z,3.60
2023-03-19T17:24:27.229Z,7.70
2023-03-19T17:26:55.223Z,4.97
2023-03-19T17:29:23.938Z,3.22
2023-03-19T17:31:52.003Z,6.28
2023-03-19T17:34:23.460Z,5.72
2023-03-19T17:36:53.237Z,6.80
2023-03-19T17:39:20.081Z,6.53
2023-03-19T17:41:46.772Z,7.88
2023-03-19T17:44:14.803Z,7.22
2023-03-19T17:46:53.294Z,6.30
2023-03-19T17:49:24.477Z,4.30
2023-03-19T17:51:51.761Z,6.82
2023-03-19T17:54:18.844Z,7.85
2023-03-19T17:56:45.601Z,9.77
2023-03-19T17:59:12.931Z,5.30
2023-03-19T18:01:43.137Z,5.65
2023-03-19T18:04:14.164Z,6.63
2023-03-19T18:06:44.321Z,6.03
2023-03-19T18:09:21.631Z,4.47
2023-03-19T18:11:48.725Z,3.58
2023-03-19T18:14:15.656Z,7.05
2023-03-19T18:16:42.890Z,7.55
2023-03-19T18:19:33.523Z,7.55
2023-03-19T18:22:00.661Z,4.35
2023-03-19T18:24:27.589Z,4.78
2023-03-19T18:26:54.225Z,5.15
2023-03-19T18:29:21.161Z,5.72
2023-03-19T18:31:50.190Z,5.70
2023-03-19T18:34:17.880Z,5.28
2023-03-19T18:36:44.905Z,8.48
2023-03-19T18:39:16.379Z,13.88
2023-03-19T18:41:43.775Z,9.40
2023-03-19T18:44:12.466Z,8.20
2023-03-19T18:46:40.734Z,8.55
2023-03-19T18:49:16.049Z,6.05
2023-03-19T18:51:58.785Z,6.13
2023-03-19T18:54:27.708Z,7.10
2023-03-19T18:56:54.920Z,6.95
2023-03-19T18:59:25.349Z,7.22
2023-03-19T19:02:00.884Z,6.75
2023-03-19T19:04:29.690Z,6.53
2023-03-19T19:06:56.652Z,7.47
2023-03-19T19:09:23.349Z,4.50
2023-03-19T19:11:50.171Z,7.57
2023-03-19T19:14:22.012Z,8.55
2023-03-19T19:16:49.038Z,7.40
2023-03-19T19:19:23.242Z,5.28
2023-03-19T19:21:53.096Z,4.03
2023-03-19T19:24:21.059Z,6.47
2023-03-19T19:26:54.127Z,7.30
2023-03-19T19:31:53.655Z,4.55
2023-03-19T19:34:20.555Z,4.47
2023-03-19T19:36:47.251Z,5.28
2023-03-19T19:39:13.916Z,5.00
2023-03-19T19:41:43.722Z,5.28
2023-03-19T19:44:18.965Z,7.50
2023-03-19T19:46:46.187Z,4.72
2023-03-19T19:49:16.885Z,8.00
2023-03-19T19:51:43.558Z,4.05
2023-03-19T19:54:10.518Z,5.43
2023-03-19T19:56:37.664Z,7.22
2023-03-19T19:59:06.985Z,6.20
2023-03-19T20:01:33.675Z,7.93
2023-03-19T20:04:00.568Z,16.48
2023-03-19T20:06:27.741Z,10.50
2023-03-19T20:08:54.425Z,7.38
2023-03-19T20:11:23.741Z,8.10
2023-03-19T20:13:54.616Z,8.65
2023-03-19T20:16:24.184Z,4.88
2023-03-19T20:18:53.856Z,8.60
2023-03-19T20:21:22.615Z,7.53
2023-03-19T20:23:52.995Z,10.10
2023-03-19T20:26:22.538Z,7.40
2023-03-19T20:28:50.933Z,6.40
2023-03-19T20:31:25.475Z,5.47
2023-03-19T20:33:52.379Z,5.88
2023-03-19T20:36:19.895Z,6.10
2023-03-19T20:38:46.659Z,7.90
2023-03-19T20:41:22.395Z,11.13
2023-03-19T20:43:50.595Z,4.50
2023-03-19T20:46:20.341Z,6.43
2023-03-19T20:48:48.060Z,4.90
2023-03-19T20:51:21.700Z,7.88
2023-03-19T20:53:49.950Z,4.97
2023-03-19T20:56:18.838Z,6.93
2023-03-19T20:58:45.912Z,6.10
2023-03-19T21:01:15.607Z,6.30
2023-03-19T21:03:42.753Z,5.30
2023-03-19T21:06:20.045Z,5.28
2023-03-19T21:08:57.737Z,6.35
2023-03-19T21:11:36.235Z,4.65
2023-03-19T21:14:03.783Z,4.43
2023-03-19T21:16:32.345Z,6.05
2023-03-19T21:18:59.181Z,6.40
2023-03-19T21:21:37.367Z,6.95
2023-03-19T21:24:15.650Z,6.18
2023-03-19T21:26:43.863Z,5.28
2023-03-19T21:29:34.356Z,6.95
2023-03-19T21:32:01.026Z,4.82
2023-03-19T21:34:28.554Z,4.60
2023-03-19T21:36:55.361Z,2.42
2023-03-19T21:39:22.093Z,6.75
2023-03-19T21:41:49.050Z,7.80
2023-03-19T21:44:20.815Z,4.15
2023-03-19T21:46:48.793Z,5.15
2023-03-19T21:49:16.225Z,5.78
2023-03-19T21:51:44.075Z,6.18
2023-03-19T21:54:11.388Z,3.30
2023-03-19T21:56:41.655Z,3.72
2023-03-19T21:59:18.110Z,5.93
2023-03-19T22:01:45.502Z,4.40
2023-03-19T22:04:12.695Z,9.38
2023-03-19T22:06:40.142Z,4.68
2023-03-19T22:09:06.827Z,8.88
2023-03-19T22:11:36.613Z,2.70
2023-03-19T22:14:15.986Z,4.55
2023-03-19T22:16:42.711Z,5.05
2023-03-19T22:19:14.553Z,6.10
2023-03-19T22:21:41.250Z,5.32
2023-03-19T22:24:08.175Z,5.15
2023-03-19T22:26:37.378Z,6.07
2023-03-19T22:29:07.824Z,9.65
2023-03-19T22:31:34.944Z,7.55
2023-03-19T22:34:01.841Z,6.90
2023-03-19T22:36:28.917Z,6.72
2023-03-19T22:38:55.686Z,5.95
2023-03-19T22:41:36.712Z,5.32
2023-03-19T22:44:08.036Z,4.13
2023-03-19T22:46:35.437Z,4.40
2023-03-19T22:49:02.665Z,6.88
2023-03-19T22:51:30.642Z,6.53
2023-03-19T22:53:57.285Z,4.82
2023-03-19T22:56:24.094Z,4.28
2023-03-19T22:58:50.981Z,4.72
2023-03-19T23:01:21.201Z,4.28
2023-03-19T23:03:49.578Z,6.13
2023-03-19T23:06:29.229Z,4.65
2023-03-19T23:08:56.203Z,5.57
2023-03-19T23:11:23.567Z,4.22
2023-03-19T23:13:50.365Z,3.40
2023-03-19T23:16:22.452Z,5.57
2023-03-19T23:18:49.896Z,6.68
2023-03-19T23:21:18.695Z,5.38
2023-03-19T23:23:46.095Z,3.67
2023-03-19T23:26:31.658Z,5.65
2023-03-19T23:29:03.642Z,7.53
2023-03-19T23:31:31.690Z,7.32
2023-03-19T23:33:58.733Z,7.72
2023-03-19T23:36:25.776Z,4.25
2023-03-19T23:38:52.460Z,7.28
2023-03-19T23:41:26.771Z,4.53
2023-03-19T23:43:54.928Z,10.05
2023-03-19T23:46:22.225Z,2.90
2023-03-19T23:48:49.131Z,5.57
2023-03-19T23:51:16.971Z,13.48
2023-03-19T23:53:44.321Z,6.95
2023-03-19T23:56:18.913Z,4.93
2023-03-19T23:58:47.620Z,8.02
